sensor_id;sensor_type;location;lat;lon;timestamp;P1;durP1;ratioP1;P2;durP2;ratioP2
70169;SDS011;57543;45.442;9.212;2023-09-19T00:02:23;11.63;;;5.55;;
70169;SDS011;57543;45.442;9.212;2023-09-19T00:05:33;11.82;;;6.00;;
70169;SDS011;57543;45.442;9.212;2023-09-19T00:08:38;11.80;;;6.72;;
70169;SDS011;57543;45.442;9.212;2023-09-19T00:11:42;16.38;;;6.97;;
70169;SDS011;57543;45.442;9.212;2023-09-19T00:14:47;13.43;;;6.60;;
70169;SDS011;57543;45.442;9.212;2023-09-19T00:17:51;15.40;;;7.22;;
70169;SDS011;57543;45.442;9.212;2023-09-19T00:20:58;15.93;;;7.47;;
70169;SDS011;57543;45.442;9.212;2023-09-19T00:24:02;14.80;;;6.95;;
70169;SDS011;57543;45.442;9.212;2023-09-19T00:27:06;13.93;;;6.72;;
70169;SDS011;57543;45.442;9.212;2023-09-19T00:30:12;14.47;;;8.13;;
70169;SDS011;57543;45.442;9.212;2023-09-19T00:33:27;13.60;;;7.38;;
70169;SDS011;57543;45.442;9.212;2023-09-19T00:36:34;16.65;;;8.55;;
70169;SDS011;57543;45.442;9.212;2023-09-19T00:39:39;15.25;;;7.82;;
70169;SDS011;57543;45.442;9.212;2023-09-19T00:42:45;15.77;;;7.95;;
70169;SDS011;57543;45.442;9.212;2023-09-19T00:45:52;13.60;;;7.27;;
70169;SDS011;57543;45.442;9.212;2023-09-19T00:48:58;15.32;;;7.38;;
70169;SDS011;57543;45.442;9.212;2023-09-19T00:52:02;13.18;;;7.55;;
70169;SDS011;57543;45.442;9.212;2023-09-19T00:55:11;13.40;;;6.93;;
70169;SDS011;57543;45.442;9.212;2023-09-19T00:58:19;13.55;;;7.07;;
70169;SDS011;57543;45.442;9.212;2023-09-19T01:01:26;15.53;;;8.60;;
70169;SDS011;57543;45.442;9.212;2023-09-19T01:04:31;16.55;;;8.00;;
70169;SDS011;57543;45.442;9.212;2023-09-19T01:07:38;18.45;;;8.77;;
70169;SDS011;57543;45.442;9.212;2023-09-19T01:10:50;17.73;;;8.63;;
70169;SDS011;57543;45.442;9.212;2023-09-19T01:20:21;17.15;;;9.38;;
70169;SDS011;57543;45.442;9.212;2023-09-19T01:23:39;20.05;;;9.73;;
70169;SDS011;57543;45.442;9.212;2023-09-19T01:27:21;16.75;;;9.43;;
70169;SDS011;57543;45.442;9.212;2023-09-19T01:30:39;18.42;;;9.63;;
70169;SDS011;57543;45.442;9.212;2023-09-19T01:34:00;18.33;;;8.90;;
70169;SDS011;57543;45.442;9.212;2023-09-19T01:37:04;20.08;;;8.82;;
70169;SDS011;57543;45.442;9.212;2023-09-19T01:40:08;18.95;;;8.85;;
70169;SDS011;57543;45.442;9.212;2023-09-19T01:43:32;17.77;;;8.50;;
70169;SDS011;57543;45.442;9.212;2023-09-19T01:46:41;15.40;;;7.82;;
70169;SDS011;57543;45.442;9.212;2023-09-19T01:49:50;17.47;;;9.80;;
70169;SDS011;57543;45.442;9.212;2023-09-19T01:53:19;15.90;;;8.07;;
70169;SDS011;57543;45.442;9.212;2023-09-19T01:56:29;16.73;;;8.52;;
70169;SDS011;57543;45.442;9.212;2023-09-19T01:59:48;15.52;;;8.48;;
70169;SDS011;57543;45.442;9.212;2023-09-19T02:03:00;17.88;;;8.98;;
70169;SDS011;57543;45.442;9.212;2023-09-19T02:06:05;15.33;;;7.90;;
70169;SDS011;57543;45.442;9.212;2023-09-19T02:09:14;16.70;;;7.70;;
70169;SDS011;57543;45.442;9.212;2023-09-19T02:12:18;18.95;;;9.27;;
70169;SDS011;57543;45.442;9.212;2023-09-19T02:15:22;16.95;;;8.40;;
70169;SDS011;57543;45.442;9.212;2023-09-19T02:18:26;17.38;;;8.82;;
70169;SDS011;57543;45.442;9.212;2023-09-19T02:21:31;16.93;;;9.00;;
70169;SDS011;57543;45.442;9.212;2023-09-19T02:24:36;17.52;;;8.82;;
70169;SDS011;57543;45.442;9.212;2023-09-19T02:27:40;16.83;;;8.25;;
70169;SDS011;57543;45.442;9.212;2023-09-19T02:30:43;16.55;;;7.80;;
70169;SDS011;57543;45.442;9.212;2023-09-19T02:33:51;15.13;;;7.22;;
70169;SDS011;57543;45.442;9.212;2023-09-19T02:36:55;13.43;;;6.50;;
70169;SDS011;57543;45.442;9.212;2023-09-19T02:39:59;11.18;;;6.03;;
70169;SDS011;57543;45.442;9.212;2023-09-19T02:43:03;10.27;;;5.22;;
70169;SDS011;57543;45.442;9.212;2023-09-19T02:46:08;14.38;;;5.10;;
70169;SDS011;57543;45.442;9.212;2023-09-19T02:49:12;9.70;;;5.20;;
70169;SDS011;57543;45.442;9.212;2023-09-19T02:52:22;12.43;;;5.57;;
70169;SDS011;57543;45.442;9.212;2023-09-19T02:55:28;9.98;;;5.50;;
70169;SDS011;57543;45.442;9.212;2023-09-19T02:58:32;8.88;;;5.03;;
70169;SDS011;57543;45.442;9.212;2023-09-19T03:01:38;9.60;;;5.28;;
70169;SDS011;57543;45.442;9.212;2023-09-19T03:04:46;9.95;;;5.13;;
70169;SDS011;57543;45.442;9.212;2023-09-19T03:07:50;10.80;;;5.20;;
70169;SDS011;57543;45.442;9.212;2023-09-19T03:10:54;11.50;;;5.10;;
70169;SDS011;57543;45.442;9.212;2023-09-19T03:13:58;10.38;;;5.97;;
70169;SDS011;57543;45.442;9.212;2023-09-19T03:17:02;13.52;;;7.43;;
70169;SDS011;57543;45.442;9.212;2023-09-19T03:20:09;13.88;;;6.88;;
70169;SDS011;57543;45.442;9.212;2023-09-19T03:23:16;13.67;;;6.67;;
70169;SDS011;57543;45.442;9.212;2023-09-19T03:26:20;13.23;;;5.70;;
70169;SDS011;57543;45.442;9.212;2023-09-19T03:29:25;14.00;;;7.22;;
70169;SDS011;57543;45.442;9.212;2023-09-19T03:32:29;11.45;;;6.60;;
70169;SDS011;57543;45.442;9.212;2023-09-19T03:35:33;14.52;;;7.03;;
70169;SDS011;57543;45.442;9.212;2023-09-19T03:38:38;14.87;;;7.40;;
70169;SDS011;57543;45.442;9.212;2023-09-19T03:41:42;15.57;;;7.32;;
70169;SDS011;57543;45.442;9.212;2023-09-19T03:44:46;13.25;;;6.93;;
70169;SDS011;57543;45.442;9.212;2023-09-19T03:47:49;12.80;;;6.97;;
70169;SDS011;57543;45.442;9.212;2023-09-19T03:50:58;11.85;;;7.00;;
70169;SDS011;57543;45.442;9.212;2023-09-19T03:54:04;13.97;;;6.97;;
70169;SDS011;57543;45.442;9.212;2023-09-19T03:57:07;18.48;;;7.20;;
70169;SDS011;57543;45.442;9.212;2023-09-19T04:00:11;14.00;;;6.38;;
70169;SDS011;57543;45.442;9.212;2023-09-19T04:03:18;14.80;;;6.93;;
70169;SDS011;57543;45.442;9.212;2023-09-19T04:06:24;10.07;;;5.95;;
70169;SDS011;57543;45.442;9.212;2023-09-19T04:09:28;9.80;;;6.17;;
70169;SDS011;57543;45.442;9.212;2023-09-19T04:12:31;10.45;;;5.93;;
70169;SDS011;57543;45.442;9.212;2023-09-19T04:15:40;10.15;;;5.88;;
70169;SDS011;57543;45.442;9.212;2023-09-19T04:18:49;10.50;;;5.40;;
70169;SDS011;57543;45.442;9.212;2023-09-19T04:21:53;10.82;;;6.10;;
70169;SDS011;57543;45.442;9.212;2023-09-19T04:24:57;10.50;;;6.20;;
70169;SDS011;57543;45.442;9.212;2023-09-19T04:28:00;14.07;;;6.93;;
70169;SDS011;57543;45.442;9.212;2023-09-19T04:31:04;14.57;;;7.40;;
70169;SDS011;57543;45.442;9.212;2023-09-19T04:34:07;12.73;;;7.35;;
70169;SDS011;57543;45.442;9.212;2023-09-19T04:37:11;10.88;;;6.93;;
70169;SDS011;57543;45.442;9.212;2023-09-19T04:40:17;12.83;;;6.57;;
70169;SDS011;57543;45.442;9.212;2023-09-19T04:43:20;13.02;;;7.00;;
70169;SDS011;57543;45.442;9.212;2023-09-19T04:46:24;11.90;;;6.32;;
70169;SDS011;57543;45.442;9.212;2023-09-19T04:49:28;12.90;;;6.68;;
70169;SDS011;57543;45.442;9.212;2023-09-19T04:52:32;12.38;;;6.50;;
70169;SDS011;57543;45.442;9.212;2023-09-19T04:55:35;13.30;;;6.57;;
70169;SDS011;57543;45.442;9.212;2023-09-19T04:58:39;12.20;;;5.90;;
70169;SDS011;57543;45.442;9.212;2023-09-19T05:01:42;10.52;;;6.00;;
70169;SDS011;57543;45.442;9.212;2023-09-19T05:04:49;10.95;;;6.03;;
70169;SDS011;57543;45.442;9.212;2023-09-19T05:07:55;9.25;;;5.22;;
70169;SDS011;57543;45.442;9.212;2023-09-19T05:11:01;9.67;;;5.33;;
70169;SDS011;57543;45.442;9.212;2023-09-19T05:14:05;10.77;;;5.63;;
70169;SDS011;57543;45.442;9.212;2023-09-19T05:17:08;10.82;;;5.72;;
70169;SDS011;57543;45.442;9.212;2023-09-19T05:20:12;10.63;;;5.53;;
70169;SDS011;57543;45.442;9.212;2023-09-19T05:23:28;7.65;;;4.68;;
70169;SDS011;57543;45.442;9.212;2023-09-19T05:26:32;9.43;;;5.27;;
70169;SDS011;57543;45.442;9.212;2023-09-19T05:29:38;10.35;;;5.40;;
70169;SDS011;57543;45.442;9.212;2023-09-19T05:32:41;8.73;;;4.97;;
70169;SDS011;57543;45.442;9.212;2023-09-19T05:35:49;11.07;;;5.10;;
70169;SDS011;57543;45.442;9.212;2023-09-19T05:38:53;8.98;;;4.63;;
70169;SDS011;57543;45.442;9.212;2023-09-19T05:41:56;11.40;;;5.47;;
70169;SDS011;57543;45.442;9.212;2023-09-19T05:45:04;10.40;;;5.78;;
70169;SDS011;57543;45.442;9.212;2023-09-19T05:48:10;9.60;;;5.40;;
70169;SDS011;57543;45.442;9.212;2023-09-19T05:51:16;9.10;;;5.20;;
70169;SDS011;57543;45.442;9.212;2023-09-19T05:54:20;8.65;;;5.20;;
70169;SDS011;57543;45.442;9.212;2023-09-19T05:57:24;9.80;;;5.60;;
70169;SDS011;57543;45.442;9.212;2023-09-19T06:00:28;7.10;;;4.57;;
70169;SDS011;57543;45.442;9.212;2023-09-19T06:03:32;9.38;;;5.30;;
70169;SDS011;57543;45.442;9.212;2023-09-19T06:06:35;12.25;;;5.82;;
70169;SDS011;57543;45.442;9.212;2023-09-19T06:09:42;8.45;;;5.40;;
70169;SDS011;57543;45.442;9.212;2023-09-19T06:12:46;11.83;;;6.27;;
70169;SDS011;57543;45.442;9.212;2023-09-19T06:15:50;11.38;;;5.70;;
70169;SDS011;57543;45.442;9.212;2023-09-19T06:18:54;8.57;;;5.38;;
70169;SDS011;57543;45.442;9.212;2023-09-19T06:21:59;15.18;;;6.65;;
70169;SDS011;57543;45.442;9.212;2023-09-19T06:25:05;9.77;;;5.90;;
70169;SDS011;57543;45.442;9.212;2023-09-19T06:28:09;11.63;;;5.97;;
70169;SDS011;57543;45.442;9.212;2023-09-19T06:31:15;9.48;;;5.95;;
70169;SDS011;57543;45.442;9.212;2023-09-19T06:34:19;10.63;;;6.32;;
70169;SDS011;57543;45.442;9.212;2023-09-19T06:37:22;9.05;;;5.80;;
70169;SDS011;57543;45.442;9.212;2023-09-19T06:40:31;12.20;;;6.47;;
70169;SDS011;57543;45.442;9.212;2023-09-19T06:43:35;10.97;;;6.37;;
70169;SDS011;57543;45.442;9.212;2023-09-19T06:46:39;9.00;;;5.45;;
70169;SDS011;57543;45.442;9.212;2023-09-19T06:49:50;9.15;;;5.78;;
70169;SDS011;57543;45.442;9.212;2023-09-19T06:52:56;9.32;;;5.47;;
70169;SDS011;57543;45.442;9.212;2023-09-19T06:56:03;9.57;;;6.50;;
70169;SDS011;57543;45.442;9.212;2023-09-19T06:59:06;11.60;;;6.07;;
70169;SDS011;57543;45.442;9.212;2023-09-19T07:02:11;12.38;;;6.85;;
70169;SDS011;57543;45.442;9.212;2023-09-19T07:05:15;11.35;;;7.28;;
70169;SDS011;57543;45.442;9.212;2023-09-19T07:08:22;13.98;;;8.02;;
70169;SDS011;57543;45.442;9.212;2023-09-19T07:11:26;14.57;;;7.43;;
70169;SDS011;57543;45.442;9.212;2023-09-19T07:14:35;16.10;;;7.97;;
70169;SDS011;57543;45.442;9.212;2023-09-19T07:17:38;17.13;;;8.45;;
70169;SDS011;57543;45.442;9.212;2023-09-19T07:20:42;15.55;;;8.50;;
70169;SDS011;57543;45.442;9.212;2023-09-19T07:23:53;13.65;;;8.25;;
70169;SDS011;57543;45.442;9.212;2023-09-19T07:26:56;14.63;;;8.88;;
70169;SDS011;57543;45.442;9.212;2023-09-19T07:30:00;14.77;;;8.43;;
70169;SDS011;57543;45.442;9.212;2023-09-19T07:33:05;18.10;;;9.80;;
70169;SDS011;57543;45.442;9.212;2023-09-19T07:36:12;16.02;;;7.43;;
70169;SDS011;57543;45.442;9.212;2023-09-19T07:39:19;10.90;;;6.78;;
70169;SDS011;57543;45.442;9.212;2023-09-19T07:42:25;12.07;;;7.32;;
70169;SDS011;57543;45.442;9.212;2023-09-19T07:45:29;13.27;;;8.43;;
70169;SDS011;57543;45.442;9.212;2023-09-19T07:48:35;14.65;;;8.23;;
70169;SDS011;57543;45.442;9.212;2023-09-19T07:51:43;14.32;;;8.10;;
70169;SDS011;57543;45.442;9.212;2023-09-19T07:54:50;13.77;;;7.32;;
70169;SDS011;57543;45.442;9.212;2023-09-19T07:57:53;11.77;;;5.93;;
70169;SDS011;57543;45.442;9.212;2023-09-19T08:01:04;15.53;;;7.13;;
70169;SDS011;57543;45.442;9.212;2023-09-19T08:04:09;15.68;;;8.05;;
70169;SDS011;57543;45.442;9.212;2023-09-19T08:07:16;10.48;;;5.57;;
70169;SDS011;57543;45.442;9.212;2023-09-19T08:10:20;12.18;;;5.78;;
70169;SDS011;57543;45.442;9.212;2023-09-19T08:13:24;12.80;;;6.55;;
70169;SDS011;57543;45.442;9.212;2023-09-19T08:16:29;12.63;;;6.90;;
70169;SDS011;57543;45.442;9.212;2023-09-19T08:19:33;10.68;;;5.95;;
70169;SDS011;57543;45.442;9.212;2023-09-19T08:22:40;10.38;;;5.75;;
70169;SDS011;57543;45.442;9.212;2023-09-19T08:25:46;12.73;;;5.70;;
70169;SDS011;57543;45.442;9.212;2023-09-19T08:28:50;9.63;;;5.72;;
70169;SDS011;57543;45.442;9.212;2023-09-19T08:31:54;20.90;;;8.90;;
70169;SDS011;57543;45.442;9.212;2023-09-19T08:35:01;16.88;;;7.28;;
70169;SDS011;57543;45.442;9.212;2023-09-19T08:38:05;10.32;;;6.00;;
70169;SDS011;57543;45.442;9.212;2023-09-19T08:41:09;11.90;;;5.85;;
70169;SDS011;57543;45.442;9.212;2023-09-19T08:44:15;13.70;;;7.28;;
70169;SDS011;57543;45.442;9.212;2023-09-19T08:47:25;12.53;;;6.47;;
70169;SDS011;57543;45.442;9.212;2023-09-19T08:54:02;15.10;;;6.88;;
70169;SDS011;57543;45.442;9.212;2023-09-19T08:57:09;12.07;;;5.90;;
70169;SDS011;57543;45.442;9.212;2023-09-19T09:00:17;9.10;;;4.40;;
70169;SDS011;57543;45.442;9.212;2023-09-19T09:03:23;9.93;;;4.37;;
70169;SDS011;57543;45.442;9.212;2023-09-19T09:06:29;9.10;;;4.00;;
70169;SDS011;57543;45.442;9.212;2023-09-19T09:09:33;8.55;;;3.20;;
70169;SDS011;57543;45.442;9.212;2023-09-19T09:12:40;7.32;;;3.28;;
70169;SDS011;57543;45.442;9.212;2023-09-19T09:15:48;7.43;;;3.15;;
70169;SDS011;57543;45.442;9.212;2023-09-19T09:18:53;8.70;;;3.30;;
70169;SDS011;57543;45.442;9.212;2023-09-19T09:22:10;10.50;;;4.70;;
70169;SDS011;57543;45.442;9.212;2023-09-19T09:25:14;13.82;;;4.75;;
70169;SDS011;57543;45.442;9.212;2023-09-19T09:28:21;11.68;;;3.83;;
70169;SDS011;57543;45.442;9.212;2023-09-19T09:31:26;7.30;;;3.50;;
70169;SDS011;57543;45.442;9.212;2023-09-19T09:34:33;9.53;;;4.07;;
70169;SDS011;57543;45.442;9.212;2023-09-19T09:37:37;9.32;;;3.70;;
70169;SDS011;57543;45.442;9.212;2023-09-19T09:40:48;10.13;;;4.00;;
70169;SDS011;57543;45.442;9.212;2023-09-19T09:44:17;6.97;;;3.78;;
70169;SDS011;57543;45.442;9.212;2023-09-19T09:47:40;9.80;;;3.63;;
70169;SDS011;57543;45.442;9.212;2023-09-19T09:50:46;8.03;;;3.47;;
70169;SDS011;57543;45.442;9.212;2023-09-19T09:54:12;7.35;;;3.72;;
70169;SDS011;57543;45.442;9.212;2023-09-19T09:57:20;11.52;;;4.30;;
70169;SDS011;57543;45.442;9.212;2023-09-19T10:00:26;10.32;;;5.43;;
70169;SDS011;57543;45.442;9.212;2023-09-19T10:03:48;11.50;;;5.57;;
70169;SDS011;57543;45.442;9.212;2023-09-19T10:06:54;9.83;;;4.20;;
70169;SDS011;57543;45.442;9.212;2023-09-19T10:10:00;10.07;;;4.70;;
70169;SDS011;57543;45.442;9.212;2023-09-19T10:13:13;10.05;;;4.55;;
70169;SDS011;57543;45.442;9.212;2023-09-19T10:16:21;12.15;;;5.05;;
70169;SDS011;57543;45.442;9.212;2023-09-19T10:19:29;7.95;;;4.18;;
70169;SDS011;57543;45.442;9.212;2023-09-19T10:22:39;10.27;;;4.50;;
70169;SDS011;57543;45.442;9.212;2023-09-19T10:25:45;10.40;;;5.15;;
70169;SDS011;57543;45.442;9.212;2023-09-19T10:28:50;9.40;;;4.25;;
70169;SDS011;57543;45.442;9.212;2023-09-19T10:31:57;7.78;;;4.28;;
70169;SDS011;57543;45.442;9.212;2023-09-19T10:35:02;10.20;;;4.47;;
70169;SDS011;57543;45.442;9.212;2023-09-19T10:38:09;8.40;;;4.17;;
70169;SDS011;57543;45.442;9.212;2023-09-19T10:41:14;12.98;;;4.93;;
70169;SDS011;57543;45.442;9.212;2023-09-19T10:44:21;10.93;;;3.90;;
70169;SDS011;57543;45.442;9.212;2023-09-19T10:47:28;7.75;;;3.50;;
70169;SDS011;57543;45.442;9.212;2023-09-19T10:50:41;8.65;;;4.30;;
70169;SDS011;57543;45.442;9.212;2023-09-19T10:53:52;11.73;;;4.40;;
70169;SDS011;57543;45.442;9.212;2023-09-19T10:57:05;9.98;;;3.67;;
70169;SDS011;57543;45.442;9.212;2023-09-19T11:00:12;8.27;;;3.30;;
70169;SDS011;57543;45.442;9.212;2023-09-19T11:03:27;12.38;;;4.40;;
70169;SDS011;57543;45.442;9.212;2023-09-19T11:06:37;9.57;;;3.75;;
70169;SDS011;57543;45.442;9.212;2023-09-19T11:09:44;8.33;;;4.37;;
70169;SDS011;57543;45.442;9.212;2023-09-19T11:12:56;9.60;;;4.32;;
70169;SDS011;57543;45.442;9.212;2023-09-19T11:19:11;8.98;;;4.22;;
70169;SDS011;57543;45.442;9.212;2023-09-19T11:22:17;11.02;;;4.93;;
70169;SDS011;57543;45.442;9.212;2023-09-19T11:28:46;7.13;;;3.25;;
70169;SDS011;57543;45.442;9.212;2023-09-19T11:31:50;8.43;;;3.55;;
70169;SDS011;57543;45.442;9.212;2023-09-19T11:34:54;9.35;;;3.60;;
70169;SDS011;57543;45.442;9.212;2023-09-19T11:38:16;9.63;;;3.63;;
70169;SDS011;57543;45.442;9.212;2023-09-19T11:44:32;6.70;;;3.10;;
70169;SDS011;57543;45.442;9.212;2023-09-19T11:47:37;6.75;;;2.70;;
70169;SDS011;57543;45.442;9.212;2023-09-19T11:50:42;9.55;;;2.97;;
70169;SDS011;57543;45.442;9.212;2023-09-19T11:53:47;7.43;;;2.90;;
70169;SDS011;57543;45.442;9.212;2023-09-19T11:56:54;8.50;;;3.30;;
70169;SDS011;57543;45.442;9.212;2023-09-19T11:59:58;7.07;;;3.20;;
70169;SDS011;57543;45.442;9.212;2023-09-19T12:03:04;5.25;;;3.13;;
70169;SDS011;57543;45.442;9.212;2023-09-19T12:06:18;8.88;;;3.40;;
70169;SDS011;57543;45.442;9.212;2023-09-19T12:09:25;7.45;;;3.55;;
70169;SDS011;57543;45.442;9.212;2023-09-19T12:12:29;8.33;;;3.10;;
70169;SDS011;57543;45.442;9.212;2023-09-19T12:15:36;7.22;;;3.20;;
70169;SDS011;57543;45.442;9.212;2023-09-19T12:18:42;6.55;;;3.40;;
70169;SDS011;57543;45.442;9.212;2023-09-19T12:21:58;8.32;;;3.40;;
70169;SDS011;57543;45.442;9.212;2023-09-19T12:25:06;6.82;;;3.42;;
70169;SDS011;57543;45.442;9.212;2023-09-19T12:28:14;7.67;;;3.23;;
70169;SDS011;57543;45.442;9.212;2023-09-19T12:31:20;8.55;;;4.25;;
70169;SDS011;57543;45.442;9.212;2023-09-19T12:34:27;7.70;;;3.15;;
70169;SDS011;57543;45.442;9.212;2023-09-19T12:37:31;10.10;;;3.55;;
70169;SDS011;57543;45.442;9.212;2023-09-19T12:40:40;6.70;;;2.90;;
70169;SDS011;57543;45.442;9.212;2023-09-19T12:43:46;11.20;;;5.87;;
70169;SDS011;57543;45.442;9.212;2023-09-19T12:46:59;9.07;;;4.30;;
70169;SDS011;57543;45.442;9.212;2023-09-19T12:50:10;8.35;;;3.20;;
70169;SDS011;57543;45.442;9.212;2023-09-19T12:53:29;13.85;;;6.35;;
70169;SDS011;57543;45.442;9.212;2023-09-19T12:56:39;7.95;;;3.30;;
70169;SDS011;57543;45.442;9.212;2023-09-19T12:59:45;6.07;;;3.10;;
70169;SDS011;57543;45.442;9.212;2023-09-19T13:06:35;5.50;;;2.88;;
70169;SDS011;57543;45.442;9.212;2023-09-19T13:10:02;8.20;;;2.85;;
70169;SDS011;57543;45.442;9.212;2023-09-19T13:13:22;7.38;;;2.42;;
70169;SDS011;57543;45.442;9.212;2023-09-19T13:16:34;6.40;;;2.70;;
70169;SDS011;57543;45.442;9.212;2023-09-19T13:19:57;6.60;;;2.70;;
70169;SDS011;57543;45.442;9.212;2023-09-19T13:23:01;10.60;;;4.00;;
70169;SDS011;57543;45.442;9.212;2023-09-19T13:26:12;6.18;;;2.80;;
70169;SDS011;57543;45.442;9.212;2023-09-19T13:29:16;6.78;;;2.35;;
70169;SDS011;57543;45.442;9.212;2023-09-19T13:32:22;7.80;;;2.70;;
70169;SDS011;57543;45.442;9.212;2023-09-19T13:35:26;8.25;;;2.30;;
70169;SDS011;57543;45.442;9.212;2023-09-19T13:38:32;7.30;;;2.53;;
70169;SDS011;57543;45.442;9.212;2023-09-19T13:41:37;9.38;;;3.20;;
70169;SDS011;57543;45.442;9.212;2023-09-19T13:44:52;6.43;;;2.80;;
70169;SDS011;57543;45.442;9.212;2023-09-19T13:47:59;6.17;;;2.70;;
70169;SDS011;57543;45.442;9.212;2023-09-19T13:51:06;7.38;;;2.40;;
70169;SDS011;57543;45.442;9.212;2023-09-19T13:54:12;5.88;;;2.50;;
70169;SDS011;57543;45.442;9.212;2023-09-19T13:57:16;6.20;;;2.55;;
70169;SDS011;57543;45.442;9.212;2023-09-19T14:00:20;5.63;;;2.50;;
70169;SDS011;57543;45.442;9.212;2023-09-19T14:03:26;7.43;;;2.50;;
70169;SDS011;57543;45.442;9.212;2023-09-19T14:06:32;5.97;;;2.40;;
70169;SDS011;57543;45.442;9.212;2023-09-19T14:09:36;6.63;;;2.53;;
70169;SDS011;57543;45.442;9.212;2023-09-19T14:12:42;5.57;;;2.15;;
70169;SDS011;57543;45.442;9.212;2023-09-19T14:15:54;9.77;;;2.47;;
70169;SDS011;57543;45.442;9.212;2023-09-19T14:19:06;5.17;;;2.50;;
70169;SDS011;57543;45.442;9.212;2023-09-19T14:22:11;6.05;;;2.40;;
70169;SDS011;57543;45.442;9.212;2023-09-19T14:25:15;7.05;;;2.70;;
70169;SDS011;57543;45.442;9.212;2023-09-19T14:28:20;5.85;;;2.30;;
70169;SDS011;57543;45.442;9.212;2023-09-19T14:31:28;7.90;;;2.65;;
70169;SDS011;57543;45.442;9.212;2023-09-19T14:34:33;4.20;;;2.10;;
70169;SDS011;57543;45.442;9.212;2023-09-19T14:37:36;5.85;;;2.13;;
70169;SDS011;57543;45.442;9.212;2023-09-19T14:40:43;6.07;;;2.45;;
70169;SDS011;57543;45.442;9.212;2023-09-19T14:43:47;6.10;;;2.40;;
70169;SDS011;57543;45.442;9.212;2023-09-19T14:46:52;5.90;;;2.40;;
70169;SDS011;57543;45.442;9.212;2023-09-19T14:50:02;5.97;;;2.50;;
70169;SDS011;57543;45.442;9.212;2023-09-19T14:53:10;6.13;;;2.33;;
70169;SDS011;57543;45.442;9.212;2023-09-19T14:56:16;6.72;;;2.35;;
70169;SDS011;57543;45.442;9.212;2023-09-19T14:59:24;5.25;;;2.85;;
70169;SDS011;57543;45.442;9.212;2023-09-19T15:02:28;6.40;;;3.03;;
70169;SDS011;57543;45.442;9.212;2023-09-19T15:05:33;6.33;;;2.70;;
70169;SDS011;57543;45.442;9.212;2023-09-19T15:08:37;6.20;;;2.67;;
70169;SDS011;57543;45.442;9.212;2023-09-19T15:11:46;5.75;;;2.50;;
70169;SDS011;57543;45.442;9.212;2023-09-19T15:14:50;5.97;;;2.80;;
70169;SDS011;57543;45.442;9.212;2023-09-19T15:17:53;5.47;;;2.72;;
70169;SDS011;57543;45.442;9.212;2023-09-19T15:21:00;8.20;;;3.10;;
70169;SDS011;57543;45.442;9.212;2023-09-19T15:24:04;6.90;;;3.00;;
70169;SDS011;57543;45.442;9.212;2023-09-19T15:27:08;7.25;;;2.75;;
70169;SDS011;57543;45.442;9.212;2023-09-19T15:30:20;6.05;;;2.85;;
70169;SDS011;57543;45.442;9.212;2023-09-19T15:33:30;6.07;;;2.95;;
70169;SDS011;57543;45.442;9.212;2023-09-19T15:36:37;6.90;;;2.70;;
70169;SDS011;57543;45.442;9.212;2023-09-19T15:39:42;5.60;;;2.95;;
70169;SDS011;57543;45.442;9.212;2023-09-19T15:42:48;5.78;;;2.90;;
70169;SDS011;57543;45.442;9.212;2023-09-19T15:45:51;6.28;;;2.88;;
70169;SDS011;57543;45.442;9.212;2023-09-19T15:48:55;6.20;;;2.97;;
70169;SDS011;57543;45.442;9.212;2023-09-19T15:52:05;6.37;;;2.93;;
70169;SDS011;57543;45.442;9.212;2023-09-19T15:55:09;6.75;;;2.90;;
70169;SDS011;57543;45.442;9.212;2023-09-19T15:58:13;6.57;;;2.60;;
70169;SDS011;57543;45.442;9.212;2023-09-19T16:01:17;8.82;;;3.00;;
70169;SDS011;57543;45.442;9.212;2023-09-19T16:04:20;5.85;;;3.28;;
70169;SDS011;57543;45.442;9.212;2023-09-19T16:07:28;6.17;;;2.90;;
70169;SDS011;57543;45.442;9.212;2023-09-19T16:10:35;5.53;;;2.70;;
70169;SDS011;57543;45.442;9.212;2023-09-19T16:13:43;6.18;;;2.78;;
70169;SDS011;57543;45.442;9.212;2023-09-19T16:16:48;8.98;;;2.97;;
70169;SDS011;57543;45.442;9.212;2023-09-19T16:19:54;7.35;;;3.10;;
70169;SDS011;57543;45.442;9.212;2023-09-19T16:22:57;5.40;;;2.67;;
70169;SDS011;57543;45.442;9.212;2023-09-19T16:26:05;8.13;;;3.40;;
70169;SDS011;57543;45.442;9.212;2023-09-19T16:29:18;9.18;;;3.05;;
70169;SDS011;57543;45.442;9.212;2023-09-19T16:32:28;5.60;;;3.03;;
70169;SDS011;57543;45.442;9.212;2023-09-19T16:35:36;6.20;;;2.88;;
70169;SDS011;57543;45.442;9.212;2023-09-19T16:38:41;5.83;;;2.90;;
70169;SDS011;57543;45.442;9.212;2023-09-19T16:41:46;6.55;;;3.13;;
70169;SDS011;57543;45.442;9.212;2023-09-19T16:44:49;6.85;;;3.38;;
70169;SDS011;57543;45.442;9.212;2023-09-19T16:48:01;7.88;;;3.13;;
70169;SDS011;57543;45.442;9.212;2023-09-19T16:51:13;7.38;;;3.08;;
70169;SDS011;57543;45.442;9.212;2023-09-19T16:54:18;7.07;;;2.90;;
70169;SDS011;57543;45.442;9.212;2023-09-19T16:57:22;6.38;;;2.67;;
70169;SDS011;57543;45.442;9.212;2023-09-19T17:00:26;5.63;;;2.50;;
70169;SDS011;57543;45.442;9.212;2023-09-19T17:03:30;6.20;;;2.92;;
70169;SDS011;57543;45.442;9.212;2023-09-19T17:06:37;7.10;;;2.70;;
70169;SDS011;57543;45.442;9.212;2023-09-19T17:09:43;7.03;;;3.30;;
70169;SDS011;57543;45.442;9.212;2023-09-19T17:12:47;6.43;;;2.40;;
70169;SDS011;57543;45.442;9.212;2023-09-19T17:15:58;5.40;;;2.45;;
70169;SDS011;57543;45.442;9.212;2023-09-19T17:19:03;5.18;;;2.80;;
70169;SDS011;57543;45.442;9.212;2023-09-19T17:22:12;7.15;;;3.00;;
70169;SDS011;57543;45.442;9.212;2023-09-19T17:25:15;8.43;;;3.13;;
70169;SDS011;57543;45.442;9.212;2023-09-19T17:28:19;7.28;;;3.22;;
70169;SDS011;57543;45.442;9.212;2023-09-19T17:31:28;7.65;;;3.30;;
70169;SDS011;57543;45.442;9.212;2023-09-19T17:34:39;7.38;;;3.60;;
70169;SDS011;57543;45.442;9.212;2023-09-19T17:37:45;7.10;;;3.50;;
70169;SDS011;57543;45.442;9.212;2023-09-19T17:40:49;12.13;;;4.57;;
70169;SDS011;57543;45.442;9.212;2023-09-19T17:43:57;8.07;;;4.00;;
70169;SDS011;57543;45.442;9.212;2023-09-19T17:47:07;7.82;;;3.60;;
70169;SDS011;57543;45.442;9.212;2023-09-19T17:50:17;7.53;;;3.55;;
70169;SDS011;57543;45.442;9.212;2023-09-19T17:53:24;6.95;;;3.38;;
70169;SDS011;57543;45.442;9.212;2023-09-19T17:56:28;7.83;;;3.20;;
70169;SDS011;57543;45.442;9.212;2023-09-19T17:59:32;7.43;;;3.50;;
70169;SDS011;57543;45.442;9.212;2023-09-19T18:02:36;7.10;;;3.47;;
70169;SDS011;57543;45.442;9.212;2023-09-19T18:05:44;7.88;;;3.55;;
70169;SDS011;57543;45.442;9.212;2023-09-19T18:08:54;6.80;;;3.45;;
70169;SDS011;57543;45.442;9.212;2023-09-19T18:12:00;6.03;;;3.67;;
70169;SDS011;57543;45.442;9.212;2023-09-19T18:15:07;7.65;;;3.30;;
70169;SDS011;57543;45.442;9.212;2023-09-19T18:18:15;7.18;;;3.53;;
70169;SDS011;57543;45.442;9.212;2023-09-19T18:21:22;8.20;;;3.92;;
70169;SDS011;57543;45.442;9.212;2023-09-19T18:24:27;8.50;;;4.40;;
70169;SDS011;57543;45.442;9.212;2023-09-19T18:27:31;7.67;;;4.47;;
70169;SDS011;57543;45.442;9.212;2023-09-19T18:30:34;7.47;;;4.32;;
70169;SDS011;57543;45.442;9.212;2023-09-19T18:33:42;10.02;;;4.85;;
70169;SDS011;57543;45.442;9.212;2023-09-19T18:36:47;10.40;;;4.55;;
70169;SDS011;57543;45.442;9.212;2023-09-19T18:39:53;8.18;;;4.60;;
70169;SDS011;57543;45.442;9.212;2023-09-19T18:42:58;7.93;;;4.80;;
70169;SDS011;57543;45.442;9.212;2023-09-19T18:46:06;9.40;;;5.05;;
70169;SDS011;57543;45.442;9.212;2023-09-19T18:49:16;12.95;;;5.60;;
70169;SDS011;57543;45.442;9.212;2023-09-19T18:52:22;10.15;;;5.07;;
70169;SDS011;57543;45.442;9.212;2023-09-19T18:55:35;13.45;;;6.00;;
70169;SDS011;57543;45.442;9.212;2023-09-19T18:58:38;13.33;;;5.80;;
70169;SDS011;57543;45.442;9.212;2023-09-19T19:01:42;10.68;;;6.38;;